Time;durP1;ratioP1;P1;durP2;ratioP2;P2;SDS_P1;SDS_P2;PMS_P1;PMS_P2;Temp;Humidity;BMP_temperature;BMP_pressure;BME280_temperature;BME280_humidity;BME280_pressure;Samples;Min_cycle;Max_cycle;Signal;HPM_P1;HPM_P2
2023/06/04 00:00:31;;;;;;;7.07;5.15;;;17.60;99.90;;;;;;5016414;28;20029;-70
2023/06/04 00:02:57;;;;;;;8.05;5.82;;;17.60;99.90;;;;;;5020484;28;20113;-70
2023/06/04 00:05:25;;;;;;;7.82;4.95;;;17.50;99.90;;;;;;5030226;28;20026;-70
2023/06/04 00:07:51;;;;;;;7.88;5.28;;;17.50;99.90;;;;;;5020248;28;20025;-70
2023/06/04 00:10:17;;;;;;;7.88;5.03;;;17.50;99.90;;;;;;5019883;28;20076;-70
2023/06/04 00:12:43;;;;;;;9.02;5.45;;;17.50;99.90;;;;;;5019941;28;20026;-70
2023/06/04 00:15:09;;;;;;;7.60;4.90;;;17.50;99.90;;;;;;5019812;28;20022;-70
2023/06/04 00:17:35;;;;;;;5.80;4.90;;;17.50;99.90;;;;;;5002474;28;20048;-70
2023/06/04 00:20:01;;;;;;;6.13;4.95;;;17.50;99.90;;;;;;5019888;28;20473;-70
2023/06/04 00:22:27;;;;;;;8.95;5.65;;;17.50;99.90;;;;;;5020431;28;20029;-70
2023/06/04 00:24:52;;;;;;;6.75;5.05;;;17.40;99.90;;;;;;5019782;28;20021;-70
2023/06/04 00:27:18;;;;;;;6.93;5.00;;;17.40;99.90;;;;;;5016538;28;20029;-70
2023/06/04 00:29:44;;;;;;;6.82;5.28;;;17.40;99.90;;;;;;5001015;28;20517;-70
2023/06/04 00:32:10;;;;;;;10.07;5.80;;;17.30;99.90;;;;;;5002378;28;20025;-70
2023/06/04 00:34:35;;;;;;;8.63;6.10;;;17.30;99.90;;;;;;5019601;28;20024;-70
2023/06/04 00:37:01;;;;;;;8.05;6.03;;;17.20;99.90;;;;;;5001949;28;20026;-70
2023/06/04 00:39:27;;;;;;;9.13;6.43;;;17.20;99.90;;;;;;5001896;28;20037;-70
2023/06/04 00:41:52;;;;;;;6.53;5.78;;;17.20;99.90;;;;;;5001878;28;20030;-71
2023/06/04 00:44:21;;;;;;;11.60;5.85;;;17.20;99.90;;;;;;5001416;28;20093;-70
2023/06/04 00:46:47;;;;;;;7.20;4.75;;;17.20;99.90;;;;;;5019739;28;20040;-70
2023/06/04 00:49:13;;;;;;;14.02;8.23;;;17.10;99.90;;;;;;5015738;28;20030;-70
2023/06/04 00:51:39;;;;;;;9.60;5.95;;;17.10;99.90;;;;;;5001605;28;20037;-70
2023/06/04 00:54:08;;;;;;;10.38;5.75;;;17.10;99.90;;;;;;5019471;28;20018;-70
2023/06/04 00:56:36;;;;;;;13.27;5.95;;;17.10;99.90;;;;;;4996768;28;20038;-70
2023/06/04 00:59:04;;;;;;;8.00;5.50;;;17.10;99.90;;;;;;4999446;28;20106;-70
2023/06/04 01:01:52;;;;;;;7.55;5.65;;;17.00;99.90;;;;;;4999325;28;20091;-70
2023/06/04 01:04:42;;;;;;;7.20;5.65;;;17.00;99.90;;;;;;5005131;28;20030;-71
2023/06/04 01:07:09;;;;;;;10.10;6.32;;;17.00;99.90;;;;;;4997894;28;20042;-71
2023/06/04 01:09:37;;;;;;;7.07;6.03;;;17.00;99.90;;;;;;4999597;28;20054;-70
2023/06/04 01:12:09;;;;;;;13.00;6.10;;;17.00;99.90;;;;;;4978626;28;20495;-70
2023/06/04 01:14:35;;;;;;;7.95;5.75;;;16.90;99.90;;;;;;4999403;28;20046;-70
2023/06/04 01:17:20;;;;;;;8.57;5.60;;;16.80;99.90;;;;;;4999463;28;20026;-70
2023/06/04 01:19:51;;;;;;;11.30;5.40;;;16.80;99.90;;;;;;4999051;28;20390;-70
2023/06/04 01:22:47;;;;;;;8.68;5.85;;;16.80;99.90;;;;;;4999445;28;20034;-70
2023/06/04 01:25:19;;;;;;;10.48;5.70;;;16.70;99.90;;;;;;4956603;28;20476;-71
2023/06/04 01:27:52;;;;;;;7.30;5.63;;;16.70;99.90;;;;;;4999150;28;20053;-71
2023/06/04 01:30:32;;;;;;;11.82;5.80;;;16.70;99.90;;;;;;4997209;28;20022;-71
2023/06/04 01:33:00;;;;;;;9.05;6.75;;;16.60;99.90;;;;;;4999197;28;20026;-70
2023/06/04 01:35:27;;;;;;;8.35;5.80;;;16.60;99.90;;;;;;4988626;28;20486;-70
2023/06/04 01:37:54;;;;;;;6.97;6.20;;;16.60;99.90;;;;;;4981291;28;20120;-70
2023/06/04 01:40:20;;;;;;;8.15;5.80;;;16.60;99.90;;;;;;4999017;28;20148;-70
2023/06/04 01:42:45;;;;;;;7.38;6.22;;;16.60;99.90;;;;;;4998719;28;20030;-70
2023/06/04 01:45:11;;;;;;;9.93;6.22;;;16.50;99.90;;;;;;4998884;28;20036;-70
2023/06/04 01:47:37;;;;;;;6.88;6.13;;;16.50;99.90;;;;;;4998523;28;20085;-70
2023/06/04 01:50:09;;;;;;;13.70;6.45;;;16.40;99.90;;;;;;4998661;28;20030;-70
2023/06/04 01:52:40;;;;;;;9.48;6.25;;;16.50;99.90;;;;;;4995780;28;20391;-70
2023/06/04 01:55:08;;;;;;;10.55;6.45;;;16.40;99.90;;;;;;4998512;28;20482;-70
2023/06/04 01:57:41;;;;;;;7.78;6.47;;;16.50;99.90;;;;;;4998172;28;20066;-70
2023/06/04 02:00:09;;;;;;;6.50;5.85;;;16.50;99.90;;;;;;4998184;28;20023;-71
2023/06/04 02:02:38;;;;;;;7.80;6.55;;;16.40;99.90;;;;;;4998315;28;20040;-70
2023/06/04 02:05:08;;;;;;;7.78;6.30;;;16.40;99.90;;;;;;5008105;28;20026;-70
2023/06/04 02:07:38;;;;;;;10.38;5.63;;;16.40;99.90;;;;;;4989191;28;20061;-70
2023/06/04 02:10:17;;;;;;;8.17;6.37;;;16.40;99.90;;;;;;4998004;28;20386;-70
2023/06/04 02:12:57;;;;;;;8.88;6.07;;;16.40;99.90;;;;;;4998228;28;20042;-70
2023/06/04 02:15:24;;;;;;;7.90;6.35;;;16.40;99.90;;;;;;4995896;28;20030;-70
2023/06/04 02:17:50;;;;;;;10.75;7.88;;;16.50;99.90;;;;;;4998082;28;20030;-70
2023/06/04 02:20:16;;;;;;;9.85;7.55;;;16.50;99.90;;;;;;4998178;28;20103;-70
2023/06/04 02:22:43;;;;;;;9.38;6.38;;;16.60;99.90;;;;;;4980579;28;20438;-70
2023/06/04 02:25:09;;;;;;;9.73;6.25;;;16.60;99.90;;;;;;4998132;28;20052;-70
2023/06/04 02:27:35;;;;;;;10.70;6.85;;;16.60;99.90;;;;;;4996446;28;20022;-70
2023/06/04 02:30:01;;;;;;;7.65;6.72;;;16.60;99.90;;;;;;4997913;28;20015;-71
2023/06/04 02:32:28;;;;;;;11.23;7.20;;;16.70;99.90;;;;;;4998013;28;20030;-70
2023/06/04 02:34:55;;;;;;;8.63;6.72;;;16.70;99.90;;;;;;4997754;28;20023;-71
2023/06/04 02:37:21;;;;;;;8.85;7.13;;;16.70;99.90;;;;;;4998171;28;20081;-70
2023/06/04 02:39:47;;;;;;;9.80;6.72;;;16.70;99.90;;;;;;4996816;28;20018;-70
2023/06/04 02:42:12;;;;;;;10.93;6.80;;;16.60;99.90;;;;;;4997895;28;20021;-70
2023/06/04 02:44:38;;;;;;;7.32;5.80;;;16.60;99.90;;;;;;4997462;28;20101;-70
2023/06/04 02:47:04;;;;;;;7.70;5.85;;;16.60;99.90;;;;;;4997842;28;20084;-71
2023/06/04 02:49:30;;;;;;;7.63;6.05;;;16.60;99.90;;;;;;4997430;28;20030;-71
2023/06/04 02:51:55;;;;;;;12.02;6.53;;;16.60;99.90;;;;;;4998159;28;20015;-70
2023/06/04 02:54:21;;;;;;;9.73;6.75;;;16.60;99.90;;;;;;4980101;28;20030;-71
2023/06/04 02:56:48;;;;;;;8.82;6.75;;;16.70;99.90;;;;;;4997540;28;20057;-71
2023/06/04 02:59:14;;;;;;;7.60;6.18;;;16.70;99.90;;;;;;4997295;28;20037;-70
2023/06/04 03:01:40;;;;;;;7.10;6.15;;;16.70;99.90;;;;;;4997153;28;20026;-70
2023/06/04 03:04:09;;;;;;;8.85;5.95;;;16.70;99.90;;;;;;5002388;28;20034;-70
2023/06/04 03:06:38;;;;;;;10.38;6.60;;;16.70;99.90;;;;;;5000221;28;20438;-70
2023/06/04 03:09:04;;;;;;;9.48;6.47;;;16.70;99.90;;;;;;5006361;28;20027;-70
2023/06/04 03:11:30;;;;;;;7.45;6.40;;;16.70;99.90;;;;;;4997117;28;20451;-70
2023/06/04 03:13:55;;;;;;;7.90;7.10;;;16.60;99.90;;;;;;4997655;28;20062;-70
2023/06/04 03:16:21;;;;;;;6.85;6.00;;;16.60;99.90;;;;;;4997511;28;20390;-70
2023/06/04 03:18:47;;;;;;;7.65;5.88;;;16.60;99.90;;;;;;4976787;28;20043;-71
2023/06/04 03:21:13;;;;;;;8.50;6.75;;;16.50;99.90;;;;;;4994704;28;20026;-70
2023/06/04 03:23:39;;;;;;;11.38;7.38;;;16.40;99.90;;;;;;4997302;28;20057;-70
2023/06/04 03:26:05;;;;;;;9.30;6.35;;;16.40;99.90;;;;;;4997758;28;20073;-70
2023/06/04 03:28:32;;;;;;;9.20;6.85;;;16.30;99.90;;;;;;5001037;28;20494;-70
2023/06/04 03:30:58;;;;;;;8.05;6.15;;;16.30;99.90;;;;;;5001328;28;20015;-70
2023/06/04 03:33:24;;;;;;;10.40;7.35;;;16.20;99.90;;;;;;5007179;28;20085;-70
2023/06/04 03:35:52;;;;;;;9.60;7.13;;;16.20;99.90;;;;;;5003264;28;20033;-70
2023/06/04 03:38:18;;;;;;;10.18;7.50;;;16.20;99.90;;;;;;5001039;28;20038;-70
2023/06/04 03:40:43;;;;;;;7.32;6.20;;;16.20;99.90;;;;;;5001068;28;20015;-70
2023/06/04 03:43:10;;;;;;;8.95;6.85;;;16.30;99.90;;;;;;5000981;28;20081;-70
2023/06/04 03:45:35;;;;;;;9.02;7.28;;;16.40;99.90;;;;;;5000882;28;20018;-70
2023/06/04 03:48:01;;;;;;;11.43;7.38;;;16.40;99.90;;;;;;5000961;28;20391;-70
2023/06/04 03:50:27;;;;;;;9.32;6.97;;;16.40;99.90;;;;;;5000935;28;20027;-70
2023/06/04 03:52:53;;;;;;;9.57;7.05;;;16.40;99.90;;;;;;5000895;28;20018;-70
2023/06/04 03:55:18;;;;;;;10.68;7.72;;;16.40;99.90;;;;;;5000675;28;20034;-70
2023/06/04 03:57:44;;;;;;;12.65;7.75;;;16.30;99.90;;;;;;5000391;28;20050;-70
2023/06/04 04:00:12;;;;;;;11.43;7.70;;;16.30;99.90;;;;;;4982999;28;20026;-70
2023/06/04 04:02:41;;;;;;;9.30;7.13;;;16.20;99.90;;;;;;5000764;28;20364;-70
2023/06/04 04:05:07;;;;;;;8.93;7.57;;;16.20;99.90;;;;;;5010519;28;20045;-70
2023/06/04 04:07:32;;;;;;;9.88;7.57;;;16.10;99.90;;;;;;5000889;28;20034;-70
2023/06/04 04:09:58;;;;;;;10.27;7.93;;;16.10;99.90;;;;;;5000499;28;20030;-71
2023/06/04 04:12:24;;;;;;;11.25;8.43;;;16.20;99.90;;;;;;5000658;28;20026;-70
2023/06/04 04:14:49;;;;;;;14.13;8.15;;;16.10;99.90;;;;;;4979758;28;20022;-70
2023/06/04 04:17:15;;;;;;;8.95;7.90;;;16.10;99.90;;;;;;4982979;28;20034;-70
2023/06/04 04:19:41;;;;;;;10.77;7.88;;;16.10;99.90;;;;;;5000300;28;20025;-71
2023/06/04 04:22:08;;;;;;;10.45;8.23;;;16.10;99.90;;;;;;5000513;28;20042;-70
2023/06/04 04:24:36;;;;;;;10.35;7.90;;;16.20;99.90;;;;;;5000038;28;20085;-70
2023/06/04 04:27:03;;;;;;;9.65;7.78;;;16.20;99.90;;;;;;5000446;28;20041;-70
2023/06/04 04:29:32;;;;;;;8.95;7.63;;;16.30;99.90;;;;;;4999698;28;20081;-71
2023/06/04 04:32:11;;;;;;;10.05;7.78;;;16.40;99.90;;;;;;5000257;28;20395;-70
2023/06/04 04:34:42;;;;;;;13.85;7.47;;;16.50;99.90;;;;;;5000190;28;20105;-70
2023/06/04 04:37:09;;;;;;;9.77;7.72;;;16.50;99.90;;;;;;4999711;28;20033;-70
2023/06/04 04:39:38;;;;;;;12.90;7.85;;;16.40;99.90;;;;;;5000116;28;20022;-71
2023/06/04 04:42:04;;;;;;;10.32;8.35;;;16.30;99.90;;;;;;4999666;28;20518;-70
2023/06/04 04:44:30;;;;;;;9.82;7.70;;;16.30;99.90;;;;;;4999751;28;20102;-70
2023/06/04 04:46:56;;;;;;;12.38;8.43;;;16.30;99.90;;;;;;4999992;28;20050;-71
2023/06/04 04:49:22;;;;;;;8.25;7.35;;;16.30;99.90;;;;;;4982262;28;20042;-70
2023/06/04 04:51:47;;;;;;;11.60;7.57;;;16.20;99.90;;;;;;4982360;28;20026;-70
2023/06/04 04:54:13;;;;;;;11.85;8.15;;;16.20;99.90;;;;;;5000001;28;20025;-70
2023/06/04 04:56:38;;;;;;;13.85;7.75;;;16.20;99.90;;;;;;4999208;28;20455;-70
2023/06/04 04:59:04;;;;;;;11.45;7.85;;;16.20;99.90;;;;;;4998326;28;20478;-70
2023/06/04 05:01:30;;;;;;;10.98;8.40;;;16.20;99.90;;;;;;4998460;28;20026;-70
2023/06/04 05:03:56;;;;;;;9.32;8.10;;;16.20;99.90;;;;;;5002756;28;20018;-70
2023/06/04 05:06:21;;;;;;;13.32;8.07;;;16.20;99.90;;;;;;5004168;28;20034;-71
2023/06/04 05:08:47;;;;;;;12.10;8.45;;;16.20;99.90;;;;;;4998513;28;20033;-70
2023/06/04 05:11:13;;;;;;;12.15;8.48;;;16.30;99.90;;;;;;4998393;28;20038;-70
2023/06/04 05:13:41;;;;;;;9.35;8.00;;;16.40;99.90;;;;;;4980752;28;20101;-70
2023/06/04 05:16:07;;;;;;;9.93;7.97;;;16.50;99.90;;;;;;4980791;28;20022;-70
2023/06/04 05:18:33;;;;;;;12.57;7.70;;;16.60;99.90;;;;;;4998478;28;20033;-70
2023/06/04 05:21:00;;;;;;;13.13;7.70;;;16.80;99.90;;;;;;4990692;28;20026;-70
2023/06/04 05:23:34;;;;;;;8.98;8.05;;;16.90;99.90;;;;;;4998399;28;20034;-70
2023/06/04 05:26:01;;;;;;;8.98;7.97;;;17.00;99.90;;;;;;4997923;28;20037;-70
2023/06/04 05:28:27;;;;;;;9.73;7.13;;;17.10;99.90;;;;;;4997934;28;20022;-70
2023/06/04 05:30:58;;;;;;;11.73;7.50;;;17.10;99.90;;;;;;4997048;28;20022;-70
2023/06/04 05:33:24;;;;;;;10.38;6.70;;;17.20;99.90;;;;;;4996850;28;20072;-70
2023/06/04 05:35:59;;;;;;;10.70;7.35;;;17.30;99.90;;;;;;4997999;28;20382;-70
2023/06/04 05:38:30;;;;;;;8.38;7.30;;;17.40;99.90;;;;;;4986767;28;20471;-70
2023/06/04 05:40:56;;;;;;;9.52;7.63;;;17.50;99.90;;;;;;4997770;28;20097;-69
2023/06/04 05:43:22;;;;;;;12.13;6.72;;;17.50;99.90;;;;;;4997910;28;20471;-70
2023/06/04 05:45:48;;;;;;;14.75;7.05;;;17.60;99.90;;;;;;4994062;28;20049;-70
2023/06/04 05:48:14;;;;;;;9.82;7.53;;;17.70;99.90;;;;;;4997663;28;20434;-70
2023/06/04 05:50:40;;;;;;;11.32;7.90;;;17.80;99.90;;;;;;4997182;28;20015;-70
2023/06/04 05:53:06;;;;;;;11.00;7.78;;;17.90;99.90;;;;;;4997996;28;20010;-70
2023/06/04 05:55:32;;;;;;;8.70;7.45;;;17.90;99.90;;;;;;4997590;28;20030;-70
2023/06/04 05:57:58;;;;;;;10.10;7.10;;;17.90;99.90;;;;;;4953051;28;1169539;-70
2023/06/04 06:00:23;;;;;;;16.50;7.05;;;17.90;99.90;;;;;;5013979;28;20037;-70
2023/06/04 06:02:50;;;;;;;8.95;7.05;;;18.00;99.90;;;;;;5018365;28;20104;-69
2023/06/04 06:05:18;;;;;;;8.32;7.10;;;18.10;99.90;;;;;;5016433;28;20510;-70
2023/06/04 06:07:44;;;;;;;12.45;6.97;;;18.20;99.90;;;;;;5018124;28;20064;-69
2023/06/04 06:10:10;;;;;;;10.90;7.15;;;18.20;99.90;;;;;;5000259;28;20032;-70
2023/06/04 06:12:36;;;;;;;7.72;6.85;;;18.30;99.90;;;;;;5017724;28;20026;-69
2023/06/04 06:15:02;;;;;;;9.55;7.25;;;18.40;99.90;;;;;;5017890;28;20501;-69
2023/06/04 06:17:28;;;;;;;8.48;6.85;;;18.50;99.90;;;;;;5000108;28;20040;-70
2023/06/04 06:19:55;;;;;;;9.63;6.60;;;18.60;99.90;;;;;;5017733;28;20032;-70
2023/06/04 06:22:20;;;;;;;9.05;6.60;;;18.60;99.90;;;;;;5017709;28;20026;-70
2023/06/04 06:24:48;;;;;;;8.82;6.63;;;18.60;99.90;;;;;;5017824;28;20084;-70
2023/06/04 06:27:15;;;;;;;10.30;6.75;;;18.70;99.90;;;;;;5017787;28;20034;-70
2023/06/04 06:29:41;;;;;;;6.93;6.07;;;18.70;99.90;;;;;;4999696;28;20054;-70
2023/06/04 06:32:07;;;;;;;7.18;6.07;;;18.80;99.90;;;;;;5017677;28;20025;-70
2023/06/04 06:34:33;;;;;;;10.05;6.28;;;18.90;99.90;;;;;;4998600;28;20105;-71
2023/06/04 06:36:58;;;;;;;7.78;6.22;;;19.00;99.90;;;;;;5017678;28;20053;-70
2023/06/04 06:39:24;;;;;;;6.40;5.78;;;19.10;99.90;;;;;;4999479;28;20026;-71
2023/06/04 06:41:50;;;;;;;9.25;6.45;;;19.20;99.90;;;;;;4999942;28;20521;-70
2023/06/04 06:44:15;;;;;;;7.75;6.20;;;19.20;99.90;;;;;;5017137;28;20021;-70
2023/06/04 06:46:41;;;;;;;10.45;6.65;;;19.10;99.90;;;;;;4999843;28;20026;-71
2023/06/04 06:49:07;;;;;;;11.18;6.13;;;19.00;99.90;;;;;;5017233;28;20022;-70
2023/06/04 06:51:32;;;;;;;7.57;5.95;;;18.90;99.90;;;;;;5017265;28;20033;-70
2023/06/04 06:53:58;;;;;;;7.70;5.55;;;19.00;99.90;;;;;;5017151;28;20030;-70
2023/06/04 06:56:24;;;;;;;9.02;5.60;;;19.10;99.90;;;;;;5013984;28;20093;-71
2023/06/04 06:58:51;;;;;;;5.75;5.15;;;19.10;99.90;;;;;;4997437;28;20065;-70
2023/06/04 07:01:17;;;;;;;6.32;4.88;;;19.40;99.90;;;;;;4997687;28;20109;-71
2023/06/04 07:03:43;;;;;;;8.88;4.90;;;19.60;99.90;;;;;;4997317;28;20065;-71
2023/06/04 07:06:09;;;;;;;8.18;5.32;;;19.90;99.90;;;;;;4997735;28;20026;-71
2023/06/04 07:08:35;;;;;;;6.50;4.88;;;20.10;99.90;;;;;;4979932;28;20030;-71
2023/06/04 07:11:03;;;;;;;7.93;4.85;;;20.40;99.90;;;;;;4997435;28;20030;-71
2023/06/04 07:13:31;;;;;;;6.22;4.50;;;20.80;99.90;;;;;;4997249;28;20026;-71
2023/06/04 07:15:57;;;;;;;6.15;4.30;;;21.10;99.90;;;;;;4979937;28;20558;-71
2023/06/04 07:18:23;;;;;;;10.80;3.83;;;21.30;99.90;;;;;;4980032;28;20026;-71
2023/06/04 07:20:49;;;;;;;6.00;4.72;;;21.30;99.90;;;;;;4997400;28;20525;-71
2023/06/04 07:23:15;;;;;;;6.10;4.90;;;21.40;99.90;;;;;;4979932;28;20030;-71
2023/06/04 07:25:41;;;;;;;4.88;3.67;;;21.40;99.90;;;;;;4997238;28;20026;-71
2023/06/04 07:28:06;;;;;;;11.27;4.30;;;21.60;99.90;;;;;;4997286;28;20033;-71
2023/06/04 07:30:32;;;;;;;5.15;3.75;;;21.80;99.90;;;;;;4997288;28;20029;-71
2023/06/04 07:32:58;;;;;;;8.07;4.35;;;22.00;99.90;;;;;;4997390;28;20029;-70
2023/06/04 07:35:24;;;;;;;7.93;4.22;;;21.90;99.90;;;;;;4997156;28;20026;-70
2023/06/04 07:37:50;;;;;;;5.95;3.50;;;22.10;99.90;;;;;;4979731;28;20032;-70
2023/06/04 07:40:16;;;;;;;8.25;4.07;;;22.20;99.90;;;;;;4997253;28;20029;-70
2023/06/04 07:42:43;;;;;;;4.47;3.63;;;22.20;99.90;;;;;;4996916;28;20022;-70
2023/06/04 07:45:09;;;;;;;5.03;3.85;;;22.10;99.90;;;;;;4997172;28;20026;-71
2023/06/04 07:47:38;;;;;;;7.40;4.00;;;22.00;99.90;;;;;;4996974;28;20022;-70
2023/06/04 07:50:05;;;;;;;4.95;3.65;;;21.70;99.90;;;;;;4997124;28;20031;-70
2023/06/04 07:52:31;;;;;;;4.60;3.25;;;21.60;99.90;;;;;;4979758;28;20027;-70
2023/06/04 07:54:57;;;;;;;6.25;3.75;;;21.50;99.90;;;;;;4996993;28;20022;-70
2023/06/04 07:57:22;;;;;;;5.50;3.28;;;21.40;99.90;;;;;;4996541;28;20411;-70
2023/06/04 07:59:49;;;;;;;4.65;3.75;;;21.30;99.90;;;;;;4997102;28;20108;-70
2023/06/04 08:02:14;;;;;;;7.28;3.80;;;21.30;99.90;;;;;;4995780;28;20034;-70
2023/06/04 08:04:40;;;;;;;5.53;3.95;;;21.30;99.90;;;;;;5000612;28;20121;-70
2023/06/04 08:07:06;;;;;;;4.57;3.67;;;21.40;99.90;;;;;;4997058;28;20041;-70
2023/06/04 08:09:32;;;;;;;6.13;3.50;;;21.70;99.90;;;;;;4996948;28;20019;-70
2023/06/04 08:11:57;;;;;;;4.07;3.50;;;21.90;99.90;;;;;;4997168;28;20109;-70
2023/06/04 08:14:26;;;;;;;4.55;3.45;;;22.00;99.90;;;;;;5000323;28;20101;-70
2023/06/04 08:16:52;;;;;;;5.15;3.10;;;22.20;99.90;;;;;;5000229;28;20025;-70
2023/06/04 08:19:18;;;;;;;5.43;3.78;;;22.20;99.90;;;;;;4997304;28;20026;-70
2023/06/04 08:21:45;;;;;;;8.13;4.88;;;22.10;99.90;;;;;;5000509;28;20426;-70
2023/06/04 08:24:11;;;;;;;4.95;3.10;;;22.00;99.90;;;;;;5000164;28;20030;-71
2023/06/04 08:26:37;;;;;;;6.28;3.75;;;22.10;99.90;;;;;;5000215;28;20031;-71
2023/06/04 08:29:06;;;;;;;4.93;3.90;;;22.00;99.90;;;;;;4999976;28;20402;-71
2023/06/04 08:31:32;;;;;;;4.25;3.47;;;21.80;99.90;;;;;;4998671;28;20026;-73
2023/06/04 08:33:58;;;;;;;5.60;3.55;;;21.90;99.90;;;;;;5000322;28;20388;-71
2023/06/04 08:36:24;;;;;;;5.15;3.65;;;22.30;99.90;;;;;;4996571;28;20049;-71
2023/06/04 08:38:52;;;;;;;4.72;3.60;;;22.20;99.90;;;;;;4982657;28;20029;-71
2023/06/04 08:41:44;;;;;;;4.82;4.07;;;22.00;99.90;;;;;;4999971;28;20086;-70
2023/06/04 08:44:11;;;;;;;5.20;3.78;;;21.90;99.90;;;;;;4997115;28;20042;-71
2023/06/04 08:46:40;;;;;;;5.80;3.90;;;21.80;99.90;;;;;;4999983;28;20027;-72
2023/06/04 08:49:07;;;;;;;6.32;3.90;;;21.90;99.90;;;;;;4982102;28;20117;-70
2023/06/04 08:51:36;;;;;;;5.35;3.55;;;22.20;99.90;;;;;;4982386;28;20065;-70
2023/06/04 08:54:04;;;;;;;6.40;4.07;;;22.70;99.90;;;;;;4999592;28;20026;-71
2023/06/04 08:56:32;;;;;;;5.70;3.50;;;23.00;99.90;;;;;;4999821;28;20333;-71
2023/06/04 08:59:02;;;;;;;4.80;3.33;;;23.30;99.90;;;;;;4999559;28;20034;-70
2023/06/04 09:01:28;;;;;;;6.70;3.47;;;23.50;99.90;;;;;;4999882;28;20030;-70
2023/06/04 09:03:55;;;;;;;7.93;3.92;;;23.50;99.90;;;;;;4999646;28;20018;-71
2023/06/04 09:06:26;;;;;;;4.65;3.47;;;23.60;99.90;;;;;;4980756;28;20053;-70
2023/06/04 09:08:57;;;;;;;4.53;3.15;;;23.90;99.90;;;;;;4999532;28;20027;-71
2023/06/04 09:11:26;;;;;;;4.90;3.33;;;24.00;99.90;;;;;;4999319;28;20049;-71
2023/06/04 09:13:53;;;;;;;4.05;3.22;;;24.10;99.90;;;;;;4999118;28;20395;-71
2023/06/04 09:16:19;;;;;;;3.80;3.20;;;23.70;99.90;;;;;;4999531;28;20022;-71
2023/06/04 09:18:45;;;;;;;5.35;3.20;;;23.50;99.90;;;;;;4981831;28;20022;-71
2023/06/04 09:21:10;;;;;;;6.28;3.60;;;23.20;99.90;;;;;;4999589;28;20490;-70
2023/06/04 09:23:48;;;;;;;5.82;3.63;;;23.10;99.90;;;;;;4980630;28;20031;-71
2023/06/04 09:26:15;;;;;;;8.43;2.85;;;22.90;99.90;;;;;;4996659;28;20064;-71
2023/06/04 09:28:45;;;;;;;6.82;3.30;;;22.90;99.90;;;;;;4999056;28;20030;-71
2023/06/04 09:31:15;;;;;;;4.72;3.15;;;23.20;99.90;;;;;;4991330;28;20022;-71
2023/06/04 09:33:50;;;;;;;5.50;3.35;;;23.20;99.90;;;;;;4998081;28;20027;-71
2023/06/04 09:36:16;;;;;;;4.45;3.03;;;23.20;99.90;;;;;;4998902;28;20478;-70
2023/06/04 09:38:42;;;;;;;5.00;3.45;;;23.00;99.90;;;;;;4999211;28;20023;-71
2023/06/04 09:41:16;;;;;;;3.90;3.30;;;23.30;99.90;;;;;;4998875;28;20097;-71
2023/06/04 09:43:43;;;;;;;6.03;3.70;;;23.50;99.90;;;;;;4998793;28;20023;-71
2023/06/04 09:46:16;;;;;;;6.10;3.80;;;23.70;99.90;;;;;;4998823;28;20034;-71
2023/06/04 09:48:42;;;;;;;4.82;3.42;;;24.00;99.90;;;;;;4989108;28;20069;-71
2023/06/04 09:51:12;;;;;;;5.05;3.10;;;24.40;99.90;;;;;;4981134;28;20026;-70
2023/06/04 09:53:38;;;;;;;4.10;3.40;;;24.30;99.90;;;;;;4998821;28;20429;-71
2023/06/04 09:56:10;;;;;;;6.00;3.35;;;24.20;99.90;;;;;;4998388;28;20664;-70
2023/06/04 09:58:37;;;;;;;6.35;2.85;;;24.00;99.90;;;;;;4998586;28;20034;-70
2023/06/04 10:01:05;;;;;;;5.22;2.88;;;24.20;99.90;;;;;;4998601;28;20383;-71
2023/06/04 10:03:35;;;;;;;5.60;2.60;;;24.30;99.90;;;;;;4997401;28;20102;-71
2023/06/04 10:06:03;;;;;;;;;;;24.50;99.90;;;;;;4999202;28;20029;-70
2023/06/04 10:08:30;;;;;;;7.70;2.85;;;24.70;99.90;;;;;;4998228;28;19913;-71
2023/06/04 10:11:01;;;;;;;6.07;2.70;;;24.80;99.90;;;;;;4998248;28;20026;-71
2023/06/04 10:13:40;;;;;;;5.82;2.75;;;24.50;99.90;;;;;;4980801;28;20109;-71
2023/06/04 10:16:07;;;;;;;5.68;3.08;;;24.60;99.90;;;;;;4982331;28;20031;-70
2023/06/04 10:18:34;;;;;;;5.30;2.55;;;24.80;99.90;;;;;;4998070;28;20027;-71
2023/06/04 10:21:00;;;;;;;7.55;3.00;;;24.90;99.90;;;;;;4998312;28;20018;-71
2023/06/04 10:23:28;;;;;;;5.72;3.35;;;25.00;99.90;;;;;;4997988;28;20030;-70
2023/06/04 10:25:54;;;;;;;6.97;3.60;;;25.00;99.90;;;;;;4998166;28;20383;-71
2023/06/04 10:28:20;;;;;;;3.97;2.85;;;25.10;99.90;;;;;;4997910;28;20034;-71
2023/06/04 10:30:50;;;;;;;5.00;2.72;;;25.10;99.90;;;;;;4998192;28;20033;-71
2023/06/04 10:33:20;;;;;;;4.63;2.83;;;25.10;99.90;;;;;;4997835;28;20026;-71
2023/06/04 10:35:46;;;;;;;3.30;2.37;;;24.80;99.90;;;;;;4997925;28;20344;-70
2023/06/04 10:38:14;;;;;;;4.35;2.67;;;24.80;99.90;;;;;;4997882;28;20114;-71
2023/06/04 10:40:40;;;;;;;4.20;2.58;;;24.90;99.90;;;;;;4997732;28;20029;-71
2023/06/04 10:43:13;;;;;;;4.18;3.00;;;24.90;99.90;;;;;;4996432;28;20026;-71
2023/06/04 10:45:40;;;;;;;4.10;2.30;;;24.90;99.90;;;;;;4997915;28;20098;-71
2023/06/04 10:48:08;;;;;;;3.17;2.33;;;25.10;99.90;;;;;;4994106;28;20058;-71
2023/06/04 10:50:46;;;;;;;5.57;3.03;;;25.20;99.90;;;;;;4997573;28;20029;-70
2023/06/04 10:53:12;;;;;;;5.13;2.90;;;25.20;99.90;;;;;;4990444;28;20022;-71
2023/06/04 10:55:45;;;;;;;5.13;2.70;;;25.00;99.90;;;;;;4997663;28;20605;-71
2023/06/04 10:58:10;;;;;;;3.85;2.33;;;25.00;99.90;;;;;;4978622;28;20057;-70
2023/06/04 11:00:40;;;;;;;3.30;2.50;;;24.70;99.90;;;;;;4997576;28;20375;-71
2023/06/04 11:03:07;;;;;;;3.07;2.67;;;24.90;99.90;;;;;;4997556;28;20045;-71
2023/06/04 11:05:42;;;;;;;7.32;2.90;;;25.20;99.90;;;;;;5004636;28;20049;-71
2023/06/04 11:08:08;;;;;;;4.53;2.33;;;25.20;99.90;;;;;;4986918;28;20034;-70
2023/06/04 11:10:38;;;;;;;5.00;2.55;;;25.30;99.90;;;;;;4997400;28;20095;-70
2023/06/04 11:13:05;;;;;;;4.85;2.65;;;25.50;99.90;;;;;;4997257;28;20389;-71
2023/06/04 11:15:48;;;;;;;5.97;2.40;;;25.60;99.90;;;;;;4979902;28;20023;-71
2023/06/04 11:18:18;;;;;;;4.45;1.90;;;25.60;99.90;;;;;;4998313;28;20022;-71
2023/06/04 11:20:48;;;;;;;3.67;2.30;;;25.70;99.90;;;;;;4997797;28;20018;-71
2023/06/04 11:23:15;;;;;;;5.07;2.47;;;25.90;99.90;;;;;;4997235;28;20438;-71
2023/06/04 11:25:45;;;;;;;3.83;2.00;;;25.90;99.90;;;;;;4997496;28;20029;-71
2023/06/04 11:28:21;;;;;;;3.67;2.40;;;25.90;99.90;;;;;;4997246;28;20483;-71
2023/06/04 11:31:02;;;;;;;4.50;2.17;;;25.90;99.90;;;;;;4997649;28;20097;-71
2023/06/04 11:33:29;;;;;;;3.40;2.10;;;26.00;99.90;;;;;;4996788;28;20033;-71
2023/06/04 11:35:55;;;;;;;2.75;1.90;;;25.90;99.90;;;;;;4997305;28;20077;-71
2023/06/04 11:38:20;;;;;;;2.75;1.77;;;25.90;99.90;;;;;;4979482;28;20030;-70
2023/06/04 11:40:58;;;;;;;2.63;1.90;;;25.90;99.90;;;;;;4997170;28;20026;-71
2023/06/04 11:43:23;;;;;;;4.85;2.13;;;26.00;99.90;;;;;;4984891;28;20054;-71
2023/06/04 11:45:50;;;;;;;3.75;2.05;;;26.10;99.90;;;;;;4997184;28;20089;-71
2023/06/04 11:48:16;;;;;;;4.60;2.20;;;26.10;99.90;;;;;;4982243;28;20490;-71
2023/06/04 11:50:42;;;;;;;3.55;1.90;;;26.30;99.90;;;;;;5000989;28;20077;-72
2023/06/04 11:53:09;;;;;;;3.00;1.90;;;26.40;99.90;;;;;;5001125;28;20031;-71
2023/06/04 11:55:35;;;;;;;3.65;2.17;;;26.40;99.90;;;;;;5000708;28;20019;-71
2023/06/04 11:58:01;;;;;;;4.35;2.28;;;26.60;99.90;;;;;;5000633;28;20085;-71
2023/06/04 12:00:28;;;;;;;4.78;2.53;;;26.80;99.90;;;;;;5000795;28;20061;-71
2023/06/04 12:02:55;;;;;;;4.75;1.75;;;27.00;99.90;;;;;;5001303;28;20097;-71
2023/06/04 12:05:24;;;;;;;3.33;2.00;;;26.70;98.20;;;;;;5001573;28;20433;-71
2023/06/04 12:07:50;;;;;;;2.60;1.67;;;26.90;99.90;;;;;;5000797;28;20018;-71
2023/06/04 12:10:17;;;;;;;2.90;1.95;;;26.80;99.60;;;;;;5000627;28;20049;-71
2023/06/04 12:12:43;;;;;;;3.22;2.00;;;27.00;99.60;;;;;;5000534;28;20045;-71
2023/06/04 12:15:09;;;;;;;4.88;2.45;;;27.20;98.30;;;;;;5000496;28;20518;-71
2023/06/04 12:17:39;;;;;;;4.63;1.58;;;27.30;97.30;;;;;;5000717;28;20023;-71
2023/06/04 12:20:05;;;;;;;4.45;2.05;;;27.40;99.50;;;;;;5000535;28;20032;-71
2023/06/04 12:22:31;;;;;;;3.38;1.73;;;27.30;96.60;;;;;;5000514;28;20046;-71
2023/06/04 12:25:00;;;;;;;2.13;1.65;;;27.50;95.60;;;;;;5000394;28;20091;-71
2023/06/04 12:27:26;;;;;;;3.85;1.65;;;27.50;98.00;;;;;;4982764;28;20406;-70
2023/06/04 12:30:03;;;;;;;2.63;1.77;;;27.70;97.70;;;;;;5000218;28;20041;-71
2023/06/04 12:32:29;;;;;;;3.53;1.98;;;27.80;95.40;;;;;;5000520;28;20057;-71
2023/06/04 12:34:55;;;;;;;5.00;2.38;;;27.80;97.20;;;;;;5000093;28;20018;-71
2023/06/04 12:37:22;;;;;;;2.75;1.90;;;27.80;96.60;;;;;;5000295;28;20026;-71
2023/06/04 12:39:48;;;;;;;2.75;1.90;;;27.90;95.10;;;;;;4999998;28;20069;-71
2023/06/04 12:42:14;;;;;;;4.75;1.92;;;28.00;96.80;;;;;;4982359;28;20034;-71
2023/06/04 12:44:40;;;;;;;3.05;1.90;;;28.20;94.50;;;;;;4999834;28;20015;-71
2023/06/04 12:47:06;;;;;;;2.58;1.80;;;28.30;93.30;;;;;;5000256;28;20542;-71